sensor_id;sensor_type;location;lat;lon;timestamp;pressure;altitude;pressure_sealevel;temperature;humidity
31331;BME280;34067;39.548;-76.088;2023-04-01T00:02:09;101304.51;;;16.58;49.35
31331;BME280;34067;39.548;-76.088;2023-04-01T00:04:37;101305.84;;;16.55;49.24
31331;BME280;34067;39.548;-76.088;2023-04-01T00:07:05;101307.55;;;16.48;49.30
31331;BME280;34067;39.548;-76.088;2023-04-01T00:09:33;101310.27;;;16.32;49.26
31331;BME280;34067;39.548;-76.088;2023-04-01T00:12:01;101302.61;;;16.06;49.50
31331;BME280;34067;39.548;-76.088;2023-04-01T00:14:29;101293.73;;;16.60;49.73
31331;BME280;34067;39.548;-76.088;2023-04-01T00:16:57;101295.61;;;16.51;50.39
31331;BME280;34067;39.548;-76.088;2023-04-01T00:19:25;101296.66;;;16.10;50.61
31331;BME280;34067;39.548;-76.088;2023-04-01T00:21:53;101291.84;;;15.75;50.37
31331;BME280;34067;39.548;-76.088;2023-04-01T00:24:21;101294.10;;;15.70;50.41
31331;BME280;34067;39.548;-76.088;2023-04-01T00:26:49;101286.76;;;16.26;49.86
31331;BME280;34067;39.548;-76.088;2023-04-01T00:29:17;101287.87;;;15.93;49.83
31331;BME280;34067;39.548;-76.088;2023-04-01T00:31:45;101291.99;;;16.34;49.97
31331;BME280;34067;39.548;-76.088;2023-04-01T00:34:13;101291.92;;;15.67;50.68
31331;BME280;34067;39.548;-76.088;2023-04-01T00:36:41;101293.26;;;15.81;50.89
31331;BME280;34067;39.548;-76.088;2023-04-01T00:39:09;101285.41;;;15.27;51.16
31331;BME280;34067;39.548;-76.088;2023-04-01T00:41:37;101283.41;;;15.90;50.67
31331;BME280;34067;39.548;-76.088;2023-04-01T00:44:18;101282.36;;;14.56;50.40
31331;BME280;34067;39.548;-76.088;2023-04-01T00:46:46;101283.43;;;15.25;49.30
31331;BME280;34067;39.548;-76.088;2023-04-01T00:49:16;101266.53;;;14.27;50.76
31331;BME280;34067;39.548;-76.088;2023-04-01T00:51:46;101276.51;;;14.88;50.72
31331;BME280;34067;39.548;-76.088;2023-04-01T00:54:16;101279.26;;;14.90;50.61
31331;BME280;34067;39.548;-76.088;2023-04-01T00:56:48;101287.78;;;14.48;50.68
31331;BME280;34067;39.548;-76.088;2023-04-01T00:59:23;101294.39;;;14.68;50.77
31331;BME280;34067;39.548;-76.088;2023-04-01T01:01:51;101287.32;;;14.77;50.73
31331;BME280;34067;39.548;-76.088;2023-04-01T01:04:24;101292.43;;;14.56;50.35
31331;BME280;34067;39.548;-76.088;2023-04-01T01:06:58;101286.42;;;14.46;51.92
31331;BME280;34067;39.548;-76.088;2023-04-01T01:09:39;101281.24;;;14.16;52.17
31331;BME280;34067;39.548;-76.088;2023-04-01T01:12:15;101289.99;;;14.92;51.61
31331;BME280;34067;39.548;-76.088;2023-04-01T01:14:56;101295.32;;;14.47;51.71
31331;BME280;34067;39.548;-76.088;2023-04-01T01:17:39;101292.49;;;15.07;50.83
31331;BME280;34067;39.548;-76.088;2023-04-01T01:20:33;101293.19;;;15.45;50.28
31331;BME280;34067;39.548;-76.088;2023-04-01T01:23:27;101300.35;;;14.86;49.43
31331;BME280;34067;39.548;-76.088;2023-04-01T01:26:15;101303.79;;;15.68;49.68
31331;BME280;34067;39.548;-76.088;2023-04-01T01:28:57;101295.88;;;14.02;51.21
31331;BME280;34067;39.548;-76.088;2023-04-01T01:31:34;101300.06;;;15.11;50.97
31331;BME280;34067;39.548;-76.088;2023-04-01T01:34:14;101306.83;;;15.01;50.51
31331;BME280;34067;39.548;-76.088;2023-04-01T01:36:50;101312.56;;;15.31;50.47
31331;BME280;34067;39.548;-76.088;2023-04-01T01:39:22;101313.21;;;15.25;51.44
31331;BME280;34067;39.548;-76.088;2023-04-01T01:41:54;101317.93;;;14.90;51.54
31331;BME280;34067;39.548;-76.088;2023-04-01T01:44:23;101322.88;;;15.46;51.23
31331;BME280;34067;39.548;-76.088;2023-04-01T01:46:54;101319.73;;;14.47;51.45
31331;BME280;34067;39.548;-76.088;2023-04-01T01:49:23;101313.31;;;14.98;53.26
31331;BME280;34067;39.548;-76.088;2023-04-01T01:51:52;101316.62;;;15.10;52.30
31331;BME280;34067;39.548;-76.088;2023-04-01T01:54:20;101310.69;;;15.37;53.36
31331;BME280;34067;39.548;-76.088;2023-04-01T01:56:50;101314.60;;;16.08;52.12
31331;BME280;34067;39.548;-76.088;2023-04-01T01:59:21;101312.83;;;15.42;53.95
31331;BME280;34067;39.548;-76.088;2023-04-01T02:01:53;101311.22;;;13.74;57.06
31331;BME280;34067;39.548;-76.088;2023-04-01T02:04:22;101300.60;;;14.71;56.57
31331;BME280;34067;39.548;-76.088;2023-04-01T02:06:55;101282.38;;;14.33;58.15
31331;BME280;34067;39.548;-76.088;2023-04-01T02:09:23;101273.37;;;14.80;57.75
31331;BME280;34067;39.548;-76.088;2023-04-01T02:11:55;101271.42;;;14.86;58.23
31331;BME280;34067;39.548;-76.088;2023-04-01T02:14:26;101267.62;;;14.57;59.05
31331;BME280;34067;39.548;-76.088;2023-04-01T02:16:58;101266.16;;;15.03;57.92
31331;BME280;34067;39.548;-76.088;2023-04-01T02:19:31;101268.19;;;15.04;56.95
31331;BME280;34067;39.548;-76.088;2023-04-01T02:22:04;101265.12;;;15.78;57.53
31331;BME280;34067;39.548;-76.088;2023-04-01T02:24:33;101238.54;;;15.56;57.71
31331;BME280;34067;39.548;-76.088;2023-04-01T02:27:04;101226.11;;;15.50;57.05
31331;BME280;34067;39.548;-76.088;2023-04-01T02:29:32;101223.94;;;15.10;58.45
31331;BME280;34067;39.548;-76.088;2023-04-01T02:32:00;101226.88;;;14.91;59.76
31331;BME280;34067;39.548;-76.088;2023-04-01T02:34:29;101227.40;;;14.99;60.25
31331;BME280;34067;39.548;-76.088;2023-04-01T02:36:57;101213.80;;;15.21;59.13
31331;BME280;34067;39.548;-76.088;2023-04-01T02:39:25;101219.06;;;15.28;59.88
31331;BME280;34067;39.548;-76.088;2023-04-01T02:41:53;101221.95;;;15.80;58.58
31331;BME280;34067;39.548;-76.088;2023-04-01T02:44:21;101205.46;;;15.83;59.31
31331;BME280;34067;39.548;-76.088;2023-04-01T02:46:49;101200.78;;;15.46;60.11
31331;BME280;34067;39.548;-76.088;2023-04-01T02:49:17;101203.64;;;14.82;61.74
31331;BME280;34067;39.548;-76.088;2023-04-01T02:51:45;101201.37;;;14.43;62.62
31331;BME280;34067;39.548;-76.088;2023-04-01T02:54:13;101209.17;;;14.61;63.52
31331;BME280;34067;39.548;-76.088;2023-04-01T02:56:41;101209.46;;;15.57;61.22
31331;BME280;34067;39.548;-76.088;2023-04-01T02:59:10;101210.53;;;15.12;63.02
31331;BME280;34067;39.548;-76.088;2023-04-01T03:01:37;101215.68;;;15.00;63.76
31331;BME280;34067;39.548;-76.088;2023-04-01T03:04:05;101215.35;;;15.68;61.70
31331;BME280;34067;39.548;-76.088;2023-04-01T03:06:34;101207.03;;;15.20;63.32
31331;BME280;34067;39.548;-76.088;2023-04-01T03:09:02;101200.70;;;15.03;62.21
31331;BME280;34067;39.548;-76.088;2023-04-01T03:11:30;101203.82;;;14.69;65.15
31331;BME280;34067;39.548;-76.088;2023-04-01T03:13:58;101197.09;;;14.99;64.46
31331;BME280;34067;39.548;-76.088;2023-04-01T03:16:26;101191.07;;;14.61;65.75
31331;BME280;34067;39.548;-76.088;2023-04-01T03:18:54;101191.68;;;14.54;67.14
31331;BME280;34067;39.548;-76.088;2023-04-01T03:21:23;101191.09;;;14.98;65.95
31331;BME280;34067;39.548;-76.088;2023-04-01T03:23:51;101184.81;;;14.57;66.12
31331;BME280;34067;39.548;-76.088;2023-04-01T03:26:19;101185.50;;;16.24;64.23
31331;BME280;34067;39.548;-76.088;2023-04-01T03:28:47;101186.22;;;14.62;67.41
31331;BME280;34067;39.548;-76.088;2023-04-01T03:31:15;101185.78;;;15.24;66.23
31331;BME280;34067;39.548;-76.088;2023-04-01T03:33:43;101186.63;;;14.41;68.39
31331;BME280;34067;39.548;-76.088;2023-04-01T03:36:11;101188.37;;;15.36;68.41
31331;BME280;34067;39.548;-76.088;2023-04-01T03:38:40;101188.43;;;14.02;70.67
31331;BME280;34067;39.548;-76.088;2023-04-01T03:41:12;101186.72;;;14.83;69.79
31331;BME280;34067;39.548;-76.088;2023-04-01T03:43:40;101189.79;;;15.03;71.66
31331;BME280;34067;39.548;-76.088;2023-04-01T03:46:08;101181.49;;;14.93;69.49
31331;BME280;34067;39.548;-76.088;2023-04-01T03:48:36;101171.73;;;14.85;68.83
31331;BME280;34067;39.548;-76.088;2023-04-01T03:51:08;101175.89;;;15.24;68.50
31331;BME280;34067;39.548;-76.088;2023-04-01T03:53:35;101175.08;;;14.87;69.50
31331;BME280;34067;39.548;-76.088;2023-04-01T03:56:04;101175.73;;;16.11;66.36
31331;BME280;34067;39.548;-76.088;2023-04-01T03:58:33;101169.70;;;15.20;65.73
31331;BME280;34067;39.548;-76.088;2023-04-01T04:01:01;101156.33;;;15.98;66.12
31331;BME280;34067;39.548;-76.088;2023-04-01T04:03:29;101149.03;;;15.39;65.11
31331;BME280;34067;39.548;-76.088;2023-04-01T04:05:57;101153.63;;;15.46;64.83
31331;BME280;34067;39.548;-76.088;2023-04-01T04:08:25;101147.81;;;14.99;68.01
31331;BME280;34067;39.548;-76.088;2023-04-01T04:10:55;101150.17;;;15.29;67.28
31331;BME280;34067;39.548;-76.088;2023-04-01T04:13:23;101156.41;;;15.23;67.07
31331;BME280;34067;39.548;-76.088;2023-04-01T04:15:51;101150.95;;;15.56;65.89
31331;BME280;34067;39.548;-76.088;2023-04-01T04:18:19;101144.61;;;15.40;65.73
31331;BME280;34067;39.548;-76.088;2023-04-01T04:20:47;101143.19;;;15.87;65.19
31331;BME280;34067;39.548;-76.088;2023-04-01T04:23:15;101138.04;;;16.13;64.54
31331;BME280;34067;39.548;-76.088;2023-04-01T04:25:55;101133.87;;;15.64;65.87
31331;BME280;34067;39.548;-76.088;2023-04-01T04:28:25;101127.17;;;14.87;67.71
31331;BME280;34067;39.548;-76.088;2023-04-01T04:30:52;101123.63;;;14.63;67.13
31331;BME280;34067;39.548;-76.088;2023-04-01T04:33:21;101107.01;;;14.99;68.74
31331;BME280;34067;39.548;-76.088;2023-04-01T04:35:49;101090.29;;;15.17;68.61
31331;BME280;34067;39.548;-76.088;2023-04-01T04:38:17;101083.06;;;15.38;68.86
31331;BME280;34067;39.548;-76.088;2023-04-01T04:40:45;101070.26;;;15.31;69.02
31331;BME280;34067;39.548;-76.088;2023-04-01T04:43:15;101056.48;;;15.75;67.79
31331;BME280;34067;39.548;-76.088;2023-04-01T04:45:44;101045.42;;;15.68;68.29
31331;BME280;34067;39.548;-76.088;2023-04-01T04:48:15;101031.79;;;15.69;66.57
31331;BME280;34067;39.548;-76.088;2023-04-01T04:50:43;101019.27;;;14.97;69.07
31331;BME280;34067;39.548;-76.088;2023-04-01T04:53:11;101007.18;;;15.54;68.49
31331;BME280;34067;39.548;-76.088;2023-04-01T04:55:43;101000.30;;;15.84;68.17
31331;BME280;34067;39.548;-76.088;2023-04-01T04:58:12;100991.41;;;15.42;67.68
31331;BME280;34067;39.548;-76.088;2023-04-01T05:03:12;100983.54;;;15.40;68.36
31331;BME280;34067;39.548;-76.088;2023-04-01T05:05:49;100993.34;;;15.47;69.29
31331;BME280;34067;39.548;-76.088;2023-04-01T05:08:17;100988.46;;;14.49;72.16
31331;BME280;34067;39.548;-76.088;2023-04-01T05:10:46;100973.09;;;14.55;71.76
31331;BME280;34067;39.548;-76.088;2023-04-01T05:13:14;100982.26;;;14.48;73.11
31331;BME280;34067;39.548;-76.088;2023-04-01T05:15:42;100969.14;;;14.11;74.60
31331;BME280;34067;39.548;-76.088;2023-04-01T05:18:10;100968.56;;;14.45;71.84
31331;BME280;34067;39.548;-76.088;2023-04-01T05:20:38;100969.27;;;15.02;74.85
31331;BME280;34067;39.548;-76.088;2023-04-01T05:23:06;100978.50;;;13.95;75.51
31331;BME280;34067;39.548;-76.088;2023-04-01T05:25:36;100984.04;;;14.87;75.54
31331;BME280;34067;39.548;-76.088;2023-04-01T05:28:04;100987.69;;;14.34;74.32
31331;BME280;34067;39.548;-76.088;2023-04-01T05:30:32;100992.56;;;13.39;78.50
31331;BME280;34067;39.548;-76.088;2023-04-01T05:33:00;100990.05;;;14.47;76.76
31331;BME280;34067;39.548;-76.088;2023-04-01T05:35:28;100979.68;;;14.89;75.22
31331;BME280;34067;39.548;-76.088;2023-04-01T05:37:57;100976.47;;;14.80;74.94
31331;BME280;34067;39.548;-76.088;2023-04-01T05:40:25;100966.39;;;15.33;75.01
31331;BME280;34067;39.548;-76.088;2023-04-01T05:42:54;100968.93;;;15.96;73.43
31331;BME280;34067;39.548;-76.088;2023-04-01T05:45:22;100960.52;;;15.14;73.47
31331;BME280;34067;39.548;-76.088;2023-04-01T05:47:50;100942.93;;;15.80;72.57
31331;BME280;34067;39.548;-76.088;2023-04-01T05:50:18;100925.88;;;15.72;72.34
31331;BME280;34067;39.548;-76.088;2023-04-01T05:52:46;100915.50;;;15.79;70.42
31331;BME280;34067;39.548;-76.088;2023-04-01T05:55:14;100907.57;;;15.89;71.47
31331;BME280;34067;39.548;-76.088;2023-04-01T05:57:41;100886.09;;;16.04;70.44
31331;BME280;34067;39.548;-76.088;2023-04-01T06:00:11;100873.67;;;15.87;71.95
31331;BME280;34067;39.548;-76.088;2023-04-01T06:02:39;100875.54;;;15.46;72.08
31331;BME280;34067;39.548;-76.088;2023-04-01T06:05:14;100869.57;;;15.37;75.00
31331;BME280;34067;39.548;-76.088;2023-04-01T06:07:44;100866.45;;;15.91;74.58
31331;BME280;34067;39.548;-76.088;2023-04-01T06:10:15;100856.41;;;15.11;76.09
31331;BME280;34067;39.548;-76.088;2023-04-01T06:12:58;100847.20;;;15.92;72.05
31331;BME280;34067;39.548;-76.088;2023-04-01T06:15:36;100839.65;;;15.25;73.62
31331;BME280;34067;39.548;-76.088;2023-04-01T06:18:30;100830.57;;;15.76;76.03
31331;BME280;34067;39.548;-76.088;2023-04-01T06:21:09;100837.57;;;16.09;76.52
31331;BME280;34067;39.548;-76.088;2023-04-01T06:23:54;100828.51;;;15.87;77.18
31331;BME280;34067;39.548;-76.088;2023-04-01T06:26:33;100813.99;;;15.56;76.55
31331;BME280;34067;39.548;-76.088;2023-04-01T06:29:21;100815.32;;;15.75;75.57
31331;BME280;34067;39.548;-76.088;2023-04-01T06:32:13;100805.12;;;16.50;73.04
31331;BME280;34067;39.548;-76.088;2023-04-01T06:34:59;100808.64;;;17.24;71.40
31331;BME280;34067;39.548;-76.088;2023-04-01T06:37:49;100813.88;;;16.50;70.61
31331;BME280;34067;39.548;-76.088;2023-04-01T06:40:44;100810.77;;;16.68;71.06
31331;BME280;34067;39.548;-76.088;2023-04-01T06:43:24;100808.25;;;16.97;71.23
31331;BME280;34067;39.548;-76.088;2023-04-01T06:46:00;100804.13;;;16.43;74.04
31331;BME280;34067;39.548;-76.088;2023-04-01T06:48:48;100787.76;;;15.47;77.23
31331;BME280;34067;39.548;-76.088;2023-04-01T06:51:27;100779.22;;;16.14;71.98
31331;BME280;34067;39.548;-76.088;2023-04-01T06:54:04;100767.22;;;16.47;74.07
31331;BME280;34067;39.548;-76.088;2023-04-01T06:56:34;100752.25;;;16.27;77.87
31331;BME280;34067;39.548;-76.088;2023-04-01T06:59:08;100737.26;;;15.93;79.28
31331;BME280;34067;39.548;-76.088;2023-04-01T07:01:41;100733.16;;;16.08;77.44
31331;BME280;34067;39.548;-76.088;2023-04-01T07:04:14;100729.99;;;15.97;77.37
31331;BME280;34067;39.548;-76.088;2023-04-01T07:06:47;100731.25;;;16.17;77.34
31331;BME280;34067;39.548;-76.088;2023-04-01T07:09:19;100724.08;;;15.29;79.03
31331;BME280;34067;39.548;-76.088;2023-04-01T07:11:48;100726.37;;;15.59;80.08
31331;BME280;34067;39.548;-76.088;2023-04-01T07:14:21;100728.21;;;16.96;78.08
31331;BME280;34067;39.548;-76.088;2023-04-01T07:16:54;100717.25;;;16.82;77.37
31331;BME280;34067;39.548;-76.088;2023-04-01T07:19:31;100713.10;;;16.42;75.63
31331;BME280;34067;39.548;-76.088;2023-04-01T07:22:03;100699.82;;;16.24;78.48
31331;BME280;34067;39.548;-76.088;2023-04-01T07:24:36;100689.15;;;16.27;76.65
31331;BME280;34067;39.548;-76.088;2023-04-01T07:27:09;100688.36;;;17.11;74.88
31331;BME280;34067;39.548;-76.088;2023-04-01T07:29:38;100680.34;;;16.55;72.16
31331;BME280;34067;39.548;-76.088;2023-04-01T07:32:26;100676.30;;;16.70;74.73
31331;BME280;34067;39.548;-76.088;2023-04-01T07:35:09;100682.14;;;16.10;75.93
31331;BME280;34067;39.548;-76.088;2023-04-01T07:37:47;100677.02;;;15.95;76.47
31331;BME280;34067;39.548;-76.088;2023-04-01T07:40:25;100672.49;;;17.07;76.54
31331;BME280;34067;39.548;-76.088;2023-04-01T07:43:14;100669.84;;;16.68;76.70
31331;BME280;34067;39.548;-76.088;2023-04-01T07:45:55;100660.13;;;16.58;78.43
31331;BME280;34067;39.548;-76.088;2023-04-01T07:48:35;100652.35;;;17.15;78.66
31331;BME280;34067;39.548;-76.088;2023-04-01T07:51:10;100646.37;;;16.72;79.67
31331;BME280;34067;39.548;-76.088;2023-04-01T07:53:48;100635.66;;;17.32;79.57
31331;BME280;34067;39.548;-76.088;2023-04-01T07:56:22;100615.11;;;15.91;79.69
31331;BME280;34067;39.548;-76.088;2023-04-01T07:59:01;100590.05;;;16.71;74.48
31331;BME280;34067;39.548;-76.088;2023-04-01T08:01:36;100571.47;;;15.73;80.70
31331;BME280;34067;39.548;-76.088;2023-04-01T08:04:23;100555.19;;;15.75;80.84
31331;BME280;34067;39.548;-76.088;2023-04-01T08:06:59;100549.90;;;16.31;78.41
31331;BME280;34067;39.548;-76.088;2023-04-01T08:09:42;100543.58;;;15.12;82.29
31331;BME280;34067;39.548;-76.088;2023-04-01T08:12:24;100543.70;;;16.24;81.06
31331;BME280;34067;39.548;-76.088;2023-04-01T08:15:05;100539.09;;;16.05;78.95
31331;BME280;34067;39.548;-76.088;2023-04-01T08:17:42;100540.61;;;16.14;79.50
31331;BME280;34067;39.548;-76.088;2023-04-01T08:20:25;100545.14;;;15.66;81.92
31331;BME280;34067;39.548;-76.088;2023-04-01T08:23:00;100566.42;;;16.41;83.75
31331;BME280;34067;39.548;-76.088;2023-04-01T08:25:33;100571.26;;;15.98;84.04
31331;BME280;34067;39.548;-76.088;2023-04-01T08:28:08;100555.64;;;15.81;83.30
31331;BME280;34067;39.548;-76.088;2023-04-01T08:30:43;100538.98;;;16.05;83.38
31331;BME280;34067;39.548;-76.088;2023-04-01T08:33:17;100530.57;;;16.57;80.82
31331;BME280;34067;39.548;-76.088;2023-04-01T08:35:51;100530.93;;;15.52;82.02
31331;BME280;34067;39.548;-76.088;2023-04-01T08:38:26;100522.02;;;15.76;84.10
31331;BME280;34067;39.548;-76.088;2023-04-01T08:41:00;100499.42;;;15.60;84.49
31331;BME280;34067;39.548;-76.088;2023-04-01T08:44:43;100499.93;;;15.19;86.48
31331;BME280;34067;39.548;-76.088;2023-04-01T08:47:35;100492.85;;;16.22;85.48
31331;BME280;34067;39.548;-76.088;2023-04-01T08:52:35;100484.18;;;16.33;88.97
31331;BME280;34067;39.548;-76.088;2023-04-01T08:55:21;100492.44;;;15.03;88.77
31331;BME280;34067;39.548;-76.088;2023-04-01T08:58:04;100479.47;;;15.01;87.94
31331;BME280;34067;39.548;-76.088;2023-04-01T09:00:44;100480.28;;;15.25;91.41
31331;BME280;34067;39.548;-76.088;2023-04-01T09:03:43;100482.51;;;14.71;90.75
31331;BME280;34067;39.548;-76.088;2023-04-01T09:06:35;100473.41;;;15.39;90.76
31331;BME280;34067;39.548;-76.088;2023-04-01T09:09:48;100464.81;;;15.00;94.17
31331;BME280;34067;39.548;-76.088;2023-04-01T09:12:35;100447.38;;;15.11;93.21
31331;BME280;34067;39.548;-76.088;2023-04-01T09:15:37;100448.91;;;14.89;94.29
31331;BME280;34067;39.548;-76.088;2023-04-01T09:18:24;100459.34;;;15.37;93.58
31331;BME280;34067;39.548;-76.088;2023-04-01T09:21:08;100458.03;;;15.14;93.64
31331;BME280;34067;39.548;-76.088;2023-04-01T09:23:54;100453.90;;;15.19;91.18
31331;BME280;34067;39.548;-76.088;2023-04-01T09:26:34;100432.90;;;14.73;92.42
31331;BME280;34067;39.548;-76.088;2023-04-01T09:29:18;100415.65;;;15.07;93.05
31331;BME280;34067;39.548;-76.088;2023-04-01T09:32:11;100406.52;;;14.91;92.93
31331;BME280;34067;39.548;-76.088;2023-04-01T09:34:54;100402.23;;;14.43;98.08
31331;BME280;34067;39.548;-76.088;2023-04-01T09:37:31;100400.74;;;15.34;97.79
31331;BME280;34067;39.548;-76.088;2023-04-01T09:40:15;100397.91;;;15.38;98.43
31331;BME280;34067;39.548;-76.088;2023-04-01T09:42:47;100388.56;;;14.41;98.26
31331;BME280;34067;39.548;-76.088;2023-04-01T09:45:32;100369.06;;;14.97;95.43
31331;BME280;34067;39.548;-76.088;2023-04-01T09:48:13;100359.12;;;14.60;100.00
31331;BME280;34067;39.548;-76.088;2023-04-01T09:50:50;100351.30;;;15.09;98.19
31331;BME280;34067;39.548;-76.088;2023-04-01T09:53:36;100356.78;;;15.47;98.47
31331;BME280;34067;39.548;-76.088;2023-04-01T09:56:57;100360.94;;;15.31;100.00
31331;BME280;34067;39.548;-76.088;2023-04-01T09:59:56;100350.63;;;14.56;100.00
31331;BME280;34067;39.548;-76.088;2023-04-01T10:03:05;100351.39;;;14.50;100.00
31331;BME280;34067;39.548;-76.088;2023-04-01T10:05:51;100347.00;;;15.34;100.00
31331;BME280;34067;39.548;-76.088;2023-04-01T10:08:48;100323.22;;;15.11;100.00
31331;BME280;34067;39.548;-76.088;2023-04-01T10:12:50;100326.57;;;15.15;100.00
31331;BME280;34067;39.548;-76.088;2023-04-01T10:15:54;100323.37;;;14.81;100.00
31331;BME280;34067;39.548;-76.088;2023-04-01T10:19:51;100300.05;;;15.24;100.00
31331;BME280;34067;39.548;-76.088;2023-04-01T10:22:42;100291.63;;;15.52;100.00
31331;BME280;34067;39.548;-76.088;2023-04-01T10:25:44;100295.77;;;15.35;100.00
31331;BME280;34067;39.548;-76.088;2023-04-01T10:28:31;100298.98;;;14.77;100.00
31331;BME280;34067;39.548;-76.088;2023-04-01T10:31:22;100289.52;;;14.52;100.00
31331;BME280;34067;39.548;-76.088;2023-04-01T10:35:21;100295.08;;;14.42;100.00
31331;BME280;34067;39.548;-76.088;2023-04-01T10:38:51;100277.80;;;15.40;100.00
31331;BME280;34067;39.548;-76.088;2023-04-01T10:41:54;100265.55;;;15.41;100.00
31331;BME280;34067;39.548;-76.088;2023-04-01T10:44:53;100265.16;;;15.31;100.00
31331;BME280;34067;39.548;-76.088;2023-04-01T10:47:50;100263.17;;;15.20;100.00
31331;BME280;34067;39.548;-76.088;2023-04-01T10:50:38;100257.23;;;15.19;100.00
31331;BME280;34067;39.548;-76.088;2023-04-01T10:53:32;100244.48;;;15.09;100.00
31331;BME280;34067;39.548;-76.088;2023-04-01T10:56:33;100244.92;;;15.21;100.00
31331;BME280;34067;39.548;-76.088;2023-04-01T10:59:20;100246.77;;;14.99;100.00
31331;BME280;34067;39.548;-76.088;2023-04-01T11:14:50;100265.26;;;15.93;100.00
31331;BME280;34067;39.548;-76.088;2023-04-01T11:20:16;100274.97;;;16.78;100.00
31331;BME280;34067;39.548;-76.088;2023-04-01T11:23:03;100233.34;;;14.70;100.00
31331;BME280;34067;39.548;-76.088;2023-04-01T11:25:51;100225.14;;;16.09;100.00
31331;BME280;34067;39.548;-76.088;2023-04-01T11:28:42;100227.09;;;15.94;100.00
31331;BME280;34067;39.548;-76.088;2023-04-01T11:31:31;100235.51;;;15.22;100.00
31331;BME280;34067;39.548;-76.088;2023-04-01T11:34:13;100219.76;;;15.34;100.00
31331;BME280;34067;39.548;-76.088;2023-04-01T11:36:50;100235.92;;;15.58;100.00
31331;BME280;34067;39.548;-76.088;2023-04-01T11:39:29;100228.08;;;15.57;100.00
31331;BME280;34067;39.548;-76.088;2023-04-01T11:42:10;100221.00;;;15.58;100.00
31331;BME280;34067;39.548;-76.088;2023-04-01T11:44:48;100227.33;;;16.15;100.00
31331;BME280;34067;39.548;-76.088;2023-04-01T11:47:35;100227.14;;;16.04;100.00
31331;BME280;34067;39.548;-76.088;2023-04-01T11:50:21;100230.52;;;16.22;100.00
31331;BME280;34067;39.548;-76.088;2023-04-01T11:53:04;100229.55;;;16.18;100.00
31331;BME280;34067;39.548;-76.088;2023-04-01T11:55:43;100223.40;;;16.62;100.00
31331;BME280;34067;39.548;-76.088;2023-04-01T11:58:28;100217.99;;;15.60;100.00
31331;BME280;34067;39.548;-76.088;2023-04-01T12:01:12;100216.35;;;15.45;100.00
31331;BME280;34067;39.548;-76.088;2023-04-01T12:04:59;100208.50;;;16.47;100.00
31331;BME280;34067;39.548;-76.088;2023-04-01T12:07:52;100207.52;;;16.25;100.00
31331;BME280;34067;39.548;-76.088;2023-04-01T12:10:31;100209.58;;;15.92;100.00
31331;BME280;34067;39.548;-76.088;2023-04-01T12:13:07;100212.83;;;15.59;100.00
31331;BME280;34067;39.548;-76.088;2023-04-01T12:15:56;100188.78;;;15.85;100.00
31331;BME280;34067;39.548;-76.088;2023-04-01T12:18:33;100200.12;;;15.42;100.00
31331;BME280;34067;39.548;-76.088;2023-04-01T12:21:17;100203.41;;;15.42;100.00
31331;BME280;34067;39.548;-76.088;2023-04-01T12:24:20;100207.89;;;16.41;100.00
31331;BME280;34067;39.548;-76.088;2023-04-01T12:27:06;100199.66;;;15.84;100.00
31331;BME280;34067;39.548;-76.088;2023-04-01T12:29:53;100201.90;;;16.07;100.00
31331;BME280;34067;39.548;-76.088;2023-04-01T12:32:34;100190.24;;;15.64;100.00
31331;BME280;34067;39.548;-76.088;2023-04-01T12:35:24;100181.68;;;15.87;100.00
31331;BME280;34067;39.548;-76.088;2023-04-01T12:38:06;100191.50;;;16.01;100.00
31331;BME280;34067;39.548;-76.088;2023-04-01T12:40:51;100202.83;;;15.68;100.00
31331;BME280;34067;39.548;-76.088;2023-04-01T12:44:22;100206.57;;;15.59;100.00
31331;BME280;34067;39.548;-76.088;2023-04-01T12:47:09;100197.35;;;16.56;100.00
31331;BME280;34067;39.548;-76.088;2023-04-01T12:50:39;100187.61;;;16.54;100.00
31331;BME280;34067;39.548;-76.088;2023-04-01T12:53:25;100186.25;;;15.85;100.00
31331;BME280;34067;39.548;-76.088;2023-04-01T12:55:58;100178.76;;;16.03;100.00
31331;BME280;34067;39.548;-76.088;2023-04-01T12:58:47;100176.20;;;16.63;100.00
31331;BME280;34067;39.548;-76.088;2023-04-01T13:01:42;100175.11;;;15.47;100.00
31331;BME280;34067;39.548;-76.088;2023-04-01T13:04:46;100171.01;;;15.69;100.00
31331;BME280;34067;39.548;-76.088;2023-04-01T13:07:26;100162.85;;;15.56;100.00
31331;BME280;34067;39.548;-76.088;2023-04-01T13:10:04;100170.18;;;16.13;100.00
31331;BME280;34067;39.548;-76.088;2023-04-01T13:13:00;100170.30;;;15.75;100.00
31331;BME280;34067;39.548;-76.088;2023-04-01T13:15:37;100173.98;;;15.99;100.00
31331;BME280;34067;39.548;-76.088;2023-04-01T13:18:21;100176.96;;;17.04;100.00
31331;BME280;34067;39.548;-76.088;2023-04-01T13:21:01;100178.34;;;16.67;100.00
31331;BME280;34067;39.548;-76.088;2023-04-01T13:23:42;100176.33;;;15.99;100.00
31331;BME280;34067;39.548;-76.088;2023-04-01T13:26:20;100175.17;;;16.26;100.00
31331;BME280;34067;39.548;-76.088;2023-04-01T13:28:56;100169.45;;;16.53;100.00
31331;BME280;34067;39.548;-76.088;2023-04-01T13:31:36;100163.04;;;16.36;100.00
31331;BME280;34067;39.548;-76.088;2023-04-01T13:34:19;100169.48;;;16.47;100.00
31331;BME280;34067;39.548;-76.088;2023-04-01T13:36:58;100162.88;;;15.35;100.00
31331;BME280;34067;39.548;-76.088;2023-04-01T13:39:38;100159.47;;;15.94;100.00
31331;BME280;34067;39.548;-76.088;2023-04-01T13:42:17;100162.58;;;16.48;100.00
31331;BME280;34067;39.548;-76.088;2023-04-01T13:44:51;100162.03;;;16.30;100.00
31331;BME280;34067;39.548;-76.088;2023-04-01T13:47:35;100159.32;;;15.42;100.00